createdAt,value
2022-11-30T00:00:13.913Z,58.50
2022-11-30T00:01:35.727Z,56.46
2022-11-30T00:02:37.535Z,56.32
2022-11-30T00:03:39.497Z,57.08
2022-11-30T00:04:41.269Z,58.14
2022-11-30T00:05:43.018Z,59.16
2022-11-30T00:06:44.756Z,60.27
2022-11-30T00:07:47.524Z,61.24
2022-11-30T00:08:57.099Z,62.23
2022-11-30T00:09:58.924Z,63.67
2022-11-30T00:11:00.987Z,64.86
2022-11-30T00:12:02.760Z,64.80
2022-11-30T00:13:05.077Z,63.94
2022-11-30T00:14:06.836Z,62.72
2022-11-30T00:15:13.989Z,61.37
2022-11-30T00:16:15.893Z,60.09
2022-11-30T00:17:17.725Z,58.89
2022-11-30T00:18:19.658Z,57.13
2022-11-30T00:19:21.475Z,56.45
2022-11-30T00:20:23.699Z,56.86
2022-11-30T00:21:25.423Z,57.76
2022-11-30T00:22:27.195Z,58.73
2022-11-30T00:23:34.056Z,59.70
2022-11-30T00:24:35.797Z,60.86
2022-11-30T00:25:37.590Z,61.83
2022-11-30T00:26:39.383Z,62.67
2022-11-30T00:27:41.253Z,64.01
2022-11-30T00:29:03.071Z,65.05
2022-11-30T00:30:06.054Z,64.59
2022-11-30T00:31:12.161Z,63.46
2022-11-30T00:32:13.999Z,62.05
2022-11-30T00:33:15.741Z,60.99
2022-11-30T00:34:17.752Z,59.78
2022-11-30T00:35:19.463Z,58.53
2022-11-30T00:36:22.632Z,56.91
2022-11-30T00:37:24.662Z,56.55
2022-11-30T00:38:26.753Z,57.14
2022-11-30T00:39:33.884Z,57.89
2022-11-30T00:40:37.091Z,59.33
2022-11-30T00:41:38.800Z,60.36
2022-11-30T00:42:40.551Z,61.38
2022-11-30T00:43:42.385Z,62.36
2022-11-30T00:44:44.321Z,63.64
2022-11-30T00:45:47.106Z,64.82
2022-11-30T00:46:48.927Z,64.79
2022-11-30T00:47:50.700Z,63.94
2022-11-30T00:48:52.457Z,62.67
2022-11-30T00:49:54.415Z,61.33
2022-11-30T00:50:56.212Z,60.08
2022-11-30T00:51:58.084Z,58.79
2022-11-30T00:53:00.287Z,57.05
2022-11-30T00:54:02.108Z,56.40
2022-11-30T00:55:04.569Z,56.85
2022-11-30T00:56:07.343Z,57.65
2022-11-30T00:57:09.093Z,58.83
2022-11-30T00:58:12.089Z,60.01
2022-11-30T00:59:15.199Z,61.08
2022-11-30T01:00:17.337Z,62.11
2022-11-30T01:01:19.110Z,63.13
2022-11-30T01:02:21.003Z,64.32
2022-11-30T01:03:22.839Z,65.01
2022-11-30T01:04:24.596Z,64.51
2022-11-30T01:05:26.574Z,63.27
2022-11-30T01:06:28.771Z,61.91
2022-11-30T01:07:30.706Z,60.64
2022-11-30T01:08:33.231Z,59.53
2022-11-30T01:09:34.962Z,58.08
2022-11-30T01:10:39.390Z,56.76
2022-11-30T01:11:41.106Z,56.63
2022-11-30T01:12:42.995Z,57.29
2022-11-30T01:13:44.866Z,58.12
2022-11-30T01:14:46.834Z,59.06
2022-11-30T01:15:48.865Z,60.22
2022-11-30T01:16:55.967Z,61.35
2022-11-30T01:18:01.226Z,62.12
2022-11-30T01:19:04.018Z,63.27
2022-11-30T01:20:08.076Z,64.91
2022-11-30T01:21:13.826Z,65.46
2022-11-30T01:22:15.588Z,64.99
2022-11-30T01:23:17.376Z,63.69
2022-11-30T01:24:19.200Z,62.33
2022-11-30T01:25:21.091Z,61.07
2022-11-30T01:26:23.827Z,59.88
2022-11-30T01:27:25.665Z,58.67
2022-11-30T01:28:27.597Z,57.01
2022-11-30T01:29:29.419Z,56.51
2022-11-30T01:30:31.244Z,57.02
2022-11-30T01:31:33.233Z,57.96
2022-11-30T01:32:35.021Z,59.06
2022-11-30T01:33:36.777Z,60.25
2022-11-30T01:34:38.482Z,61.36
2022-11-30T01:35:40.226Z,62.46
2022-11-30T01:36:43.647Z,63.83
2022-11-30T01:37:45.518Z,64.94
2022-11-30T01:38:51.049Z,64.71
2022-11-30T01:39:52.830Z,63.67
2022-11-30T01:40:54.618Z,62.40
2022-11-30T01:41:56.546Z,61.15
2022-11-30T01:42:58.572Z,59.97
2022-11-30T01:44:06.033Z,58.60
2022-11-30T01:45:12.878Z,56.89
2022-11-30T01:46:17.544Z,56.54
2022-11-30T01:47:32.089Z,57.25
2022-11-30T01:48:33.872Z,58.40
2022-11-30T01:49:47.714Z,59.32
2022-11-30T01:50:49.482Z,60.50
2022-11-30T01:52:02.898Z,61.60
2022-11-30T01:53:10.956Z,62.73
2022-11-30T01:54:18.042Z,64.37
2022-11-30T01:55:42.752Z,65.04
2022-11-30T01:56:52.421Z,64.12
2022-11-30T01:58:16.887Z,62.78
2022-11-30T01:59:22.317Z,61.07
2022-11-30T02:00:24.357Z,59.74
2022-11-30T02:01:26.331Z,58.33
2022-11-30T02:02:48.069Z,56.86
2022-11-30T02:04:00.033Z,56.80
2022-11-30T02:05:02.598Z,57.78
2022-11-30T02:06:04.634Z,58.75
2022-11-30T02:07:08.667Z,59.79
2022-11-30T02:08:11.755Z,60.84
2022-11-30T02:09:17.979Z,61.77
2022-11-30T02:10:28.245Z,62.80
2022-11-30T02:11:30.089Z,64.42
2022-11-30T02:13:08.325Z,64.95
2022-11-30T02:14:26.601Z,63.70
2022-11-30T02:15:42.137Z,62.16
2022-11-30T02:17:01.162Z,60.39
2022-11-30T02:18:13.476Z,58.70
2022-11-30T02:19:49.574Z,56.86
2022-11-30T02:20:54.034Z,56.68
2022-11-30T02:22:33.012Z,57.32
2022-11-30T02:24:03.981Z,58.90
2022-11-30T02:25:05.897Z,60.18
2022-11-30T02:26:50.214Z,61.42
2022-11-30T02:28:13.022Z,63.43
2022-11-30T02:29:29.308Z,65.15
2022-11-30T02:30:37.925Z,64.98
2022-11-30T02:31:59.482Z,63.79
2022-11-30T02:33:11.295Z,62.08
2022-11-30T02:34:18.380Z,60.61
2022-11-30T02:35:27.147Z,59.41
2022-11-30T02:36:31.701Z,57.61
2022-11-30T02:37:37.009Z,56.50
2022-11-30T02:38:40.693Z,56.80
2022-11-30T02:39:44.200Z,57.83
2022-11-30T02:40:46.281Z,58.96
2022-11-30T02:41:48.153Z,60.12
2022-11-30T02:42:53.941Z,61.34
2022-11-30T02:43:55.855Z,62.28
2022-11-30T02:44:58.032Z,63.56
2022-11-30T02:46:26.634Z,64.87
2022-11-30T02:47:37.855Z,64.68
2022-11-30T02:48:50.136Z,63.30
2022-11-30T02:50:01.173Z,61.72
2022-11-30T02:51:07.905Z,60.33
2022-11-30T02:52:12.888Z,59.12
2022-11-30T02:53:14.739Z,57.25
2022-11-30T02:54:18.381Z,56.34
2022-11-30T02:55:20.757Z,56.65
2022-11-30T02:56:23.108Z,57.69
2022-11-30T02:57:24.847Z,58.83
2022-11-30T02:58:26.671Z,59.83
2022-11-30T02:59:29.589Z,60.91
2022-11-30T03:00:32.048Z,61.92
2022-11-30T03:01:33.889Z,63.09
2022-11-30T03:02:35.737Z,64.55
2022-11-30T03:03:37.624Z,65.09
2022-11-30T03:04:39.409Z,64.54
2022-11-30T03:05:41.176Z,63.55
2022-11-30T03:06:43.219Z,62.17
2022-11-30T03:07:45.248Z,60.84
2022-11-30T03:08:47.036Z,59.80
2022-11-30T03:09:48.982Z,58.49
2022-11-30T03:10:50.704Z,56.94
2022-11-30T03:11:52.467Z,56.61
2022-11-30T03:12:58.670Z,57.19
2022-11-30T03:14:00.508Z,58.33
2022-11-30T03:15:02.310Z,59.35
2022-11-30T03:16:11.858Z,60.41
2022-11-30T03:17:13.764Z,61.53
2022-11-30T03:18:15.500Z,62.34
2022-11-30T03:19:17.336Z,63.61
2022-11-30T03:20:19.112Z,64.97
2022-11-30T03:21:20.889Z,65.13
2022-11-30T03:22:23.729Z,64.46
2022-11-30T03:23:25.467Z,63.11
2022-11-30T03:24:27.392Z,61.77
2022-11-30T03:25:29.819Z,60.65
2022-11-30T03:26:31.572Z,59.58
2022-11-30T03:27:33.573Z,58.03
2022-11-30T03:28:36.907Z,56.87
2022-11-30T03:29:39.357Z,57.03
2022-11-30T03:30:41.361Z,57.71
2022-11-30T03:31:43.096Z,58.77
2022-11-30T03:32:44.816Z,59.76
2022-11-30T03:33:46.560Z,60.81
2022-11-30T03:34:48.543Z,61.83
2022-11-30T03:36:02.510Z,62.94
2022-11-30T03:37:04.328Z,64.72
2022-11-30T03:38:06.221Z,65.21
2022-11-30T03:39:08.012Z,64.66
2022-11-30T03:40:10.535Z,63.47
2022-11-30T03:41:16.479Z,62.16
2022-11-30T03:42:18.331Z,60.78
2022-11-30T03:43:20.087Z,59.78
2022-11-30T03:44:21.903Z,58.52
2022-11-30T03:45:23.654Z,56.93
2022-11-30T03:46:27.230Z,56.50
2022-11-30T03:47:29.222Z,56.88
2022-11-30T03:48:31.671Z,57.90
2022-11-30T03:49:33.512Z,59.20
2022-11-30T03:50:35.222Z,60.15
2022-11-30T03:51:37.001Z,61.31
2022-11-30T03:52:38.833Z,62.38
2022-11-30T03:53:41.349Z,63.80
2022-11-30T03:54:43.149Z,65.06
2022-11-30T03:55:45.355Z,65.30
2022-11-30T03:56:47.133Z,64.53
2022-11-30T03:57:48.976Z,63.40
2022-11-30T03:58:51.303Z,62.23
2022-11-30T03:59:53.073Z,60.93
2022-11-30T04:01:05.876Z,59.92
2022-11-30T04:02:07.660Z,58.41
2022-11-30T04:03:09.786Z,56.99
2022-11-30T04:04:12.629Z,56.86
2022-11-30T04:05:14.554Z,57.57
2022-11-30T04:06:17.923Z,58.30
2022-11-30T04:07:19.681Z,59.42
2022-11-30T04:08:21.526Z,60.63
2022-11-30T04:09:23.287Z,61.67
2022-11-30T04:10:25.062Z,62.47
2022-11-30T04:11:26.816Z,63.95
2022-11-30T04:12:28.579Z,65.15
2022-11-30T04:13:32.299Z,65.13
2022-11-30T04:14:34.041Z,64.23
2022-11-30T04:15:35.813Z,63.05
2022-11-30T04:16:37.593Z,61.80
2022-11-30T04:17:39.319Z,60.72
2022-11-30T04:18:41.442Z,59.41
2022-11-30T04:19:43.158Z,57.79
2022-11-30T04:20:45.093Z,56.60
2022-11-30T04:21:46.837Z,56.65
2022-11-30T04:22:48.621Z,57.34
2022-11-30T04:23:50.385Z,58.37
2022-11-30T04:24:52.167Z,59.31
2022-11-30T04:25:53.889Z,60.44
2022-11-30T04:26:55.612Z,61.56
2022-11-30T04:27:57.469Z,62.30
2022-11-30T04:29:03.228Z,63.31
2022-11-30T04:30:07.207Z,64.93
2022-11-30T04:31:09.702Z,65.32
2022-11-30T04:32:11.565Z,64.63
2022-11-30T04:33:15.392Z,63.43
2022-11-30T04:34:17.185Z,62.13
2022-11-30T04:35:18.926Z,60.81
2022-11-30T04:36:21.549Z,59.67
2022-11-30T04:37:23.287Z,58.34
2022-11-30T04:38:26.354Z,56.91
2022-11-30T04:39:28.102Z,56.77
2022-11-30T04:40:29.819Z,57.46
2022-11-30T04:41:31.715Z,58.34
2022-11-30T04:42:33.451Z,59.49
2022-11-30T04:43:36.333Z,60.56
2022-11-30T04:44:38.058Z,61.62
2022-11-30T04:45:41.067Z,62.56
2022-11-30T04:46:42.908Z,64.03
2022-11-30T04:47:44.710Z,65.09
2022-11-30T04:48:46.451Z,64.86
2022-11-30T04:49:48.263Z,63.83
2022-11-30T04:50:50.115Z,62.61
2022-11-30T04:51:51.869Z,61.33
2022-11-30T04:52:53.812Z,60.13
2022-11-30T04:53:55.609Z,58.82
2022-11-30T04:54:57.311Z,57.05
2022-11-30T04:55:59.369Z,56.17
2022-11-30T04:57:01.150Z,56.49
2022-11-30T04:58:02.913Z,57.36
2022-11-30T04:59:04.803Z,58.26
2022-11-30T05:00:07.486Z,59.06
2022-11-30T05:01:09.412Z,60.45
2022-11-30T05:02:11.434Z,61.34
2022-11-30T05:03:13.207Z,62.16
2022-11-30T05:04:15.132Z,63.37
2022-11-30T05:05:17.409Z,64.95
2022-11-30T05:06:19.209Z,65.66
2022-11-30T05:07:21.019Z,65.17
2022-11-30T05:08:23.045Z,64.08
2022-11-30T05:09:24.797Z,62.81
2022-11-30T05:10:28.252Z,61.55
2022-11-30T05:11:30.034Z,60.30
2022-11-30T05:12:32.267Z,59.10
2022-11-30T05:13:34.017Z,57.49
2022-11-30T05:14:35.862Z,56.71
2022-11-30T05:15:37.625Z,57.04
2022-11-30T05:16:39.385Z,57.84
2022-11-30T05:17:41.173Z,58.75
2022-11-30T05:18:42.916Z,59.91
2022-11-30T05:19:44.659Z,61.05
2022-11-30T05:20:53.511Z,61.97
2022-11-30T05:21:55.385Z,63.08
2022-11-30T05:22:57.711Z,64.51
2022-11-30T05:23:59.568Z,65.06
2022-11-30T05:25:01.653Z,64.40
2022-11-30T05:26:04.027Z,63.17
2022-11-30T05:27:12.686Z,61.92
2022-11-30T05:28:16.582Z,60.61
2022-11-30T05:29:18.500Z,59.54
2022-11-30T05:30:20.374Z,57.88
2022-11-30T05:31:22.192Z,56.55
2022-11-30T05:32:24.056Z,56.43
2022-11-30T05:33:25.783Z,57.18
2022-11-30T05:34:28.009Z,58.32
2022-11-30T05:35:29.797Z,59.44
2022-11-30T05:36:31.549Z,60.62
2022-11-30T05:37:33.320Z,61.51
2022-11-30T05:38:35.055Z,62.42
2022-11-30T05:39:36.909Z,63.47
2022-11-30T05:40:38.706Z,64.83
2022-11-30T05:41:40.473Z,65.03
2022-11-30T05:42:42.395Z,64.37
2022-11-30T05:43:44.856Z,63.31
2022-11-30T05:44:48.037Z,61.81
2022-11-30T05:45:50.050Z,60.46
2022-11-30T05:46:51.857Z,59.29
2022-11-30T05:47:54.067Z,57.60
2022-11-30T05:48:55.813Z,56.45
2022-11-30T05:49:57.561Z,56.46
2022-11-30T05:51:17.566Z,57.21
2022-11-30T05:52:19.314Z,58.32
2022-11-30T05:53:21.122Z,59.45
2022-11-30T05:54:22.865Z,60.64
2022-11-30T05:55:25.102Z,61.84
2022-11-30T05:56:26.882Z,63.12
2022-11-30T05:57:28.690Z,64.93
2022-11-30T05:58:30.573Z,65.71
2022-11-30T05:59:32.452Z,65.38
2022-11-30T06:00:34.217Z,64.38
2022-11-30T06:01:36.003Z,62.97
2022-11-30T06:02:37.861Z,61.76
2022-11-30T06:03:39.850Z,60.66
2022-11-30T06:04:41.632Z,59.56
2022-11-30T06:05:43.355Z,58.16
2022-11-30T06:06:45.090Z,56.85
2022-11-30T06:07:46.827Z,56.78
2022-11-30T06:08:50.622Z,57.52
2022-11-30T06:09:52.348Z,58.39
2022-11-30T06:10:54.542Z,59.29
2022-11-30T06:11:56.245Z,60.19
2022-11-30T06:12:58.020Z,61.34
2022-11-30T06:13:59.811Z,62.34
2022-11-30T06:15:01.603Z,63.47
2022-11-30T06:16:04.758Z,64.92
2022-11-30T06:17:06.801Z,65.17
2022-11-30T06:18:12.665Z,64.40
2022-11-30T06:19:14.406Z,62.98
2022-11-30T06:20:16.302Z,61.60
2022-11-30T06:21:22.724Z,60.39
2022-11-30T06:22:26.328Z,59.08
2022-11-30T06:23:28.675Z,57.43
2022-11-30T06:24:30.550Z,56.55
2022-11-30T06:25:32.459Z,56.88
2022-11-30T06:26:34.170Z,57.71
2022-11-30T06:27:35.897Z,58.77
2022-11-30T06:28:38.339Z,59.89
2022-11-30T06:29:40.115Z,60.81
2022-11-30T06:30:42.024Z,61.71
2022-11-30T06:31:44.326Z,62.37
2022-11-30T06:32:51.947Z,63.73
2022-11-30T06:33:57.557Z,65.05
2022-11-30T06:34:59.362Z,64.99
2022-11-30T06:36:01.225Z,64.00
2022-11-30T06:37:02.972Z,62.59
2022-11-30T06:38:04.836Z,61.16
2022-11-30T06:39:06.977Z,59.96
2022-11-30T06:40:12.463Z,58.70
2022-11-30T06:41:14.322Z,56.91
2022-11-30T06:42:16.189Z,56.43
2022-11-30T06:43:18.824Z,56.98
2022-11-30T06:44:20.980Z,57.87
2022-11-30T06:45:22.834Z,58.71
2022-11-30T06:46:25.083Z,59.87
2022-11-30T06:47:28.161Z,60.79
2022-11-30T06:48:30.199Z,61.48
2022-11-30T06:49:31.959Z,61.96
2022-11-30T06:50:34.011Z,62.94
2022-11-30T06:51:37.333Z,64.46
2022-11-30T06:52:39.063Z,65.48
2022-11-30T06:53:44.391Z,65.17
2022-11-30T06:54:46.505Z,64.27
2022-11-30T06:55:48.643Z,62.73
2022-11-30T06:56:50.439Z,61.47
2022-11-30T06:57:52.210Z,60.27
2022-11-30T06:58:54.409Z,59.05
2022-11-30T06:59:57.331Z,57.41
2022-11-30T07:00:59.268Z,56.49
2022-11-30T07:02:07.541Z,56.60
2022-11-30T07:03:11.956Z,57.35
2022-11-30T07:04:13.707Z,58.56
2022-11-30T07:05:15.730Z,59.53
2022-11-30T07:06:17.869Z,60.59
2022-11-30T07:07:19.973Z,61.61
2022-11-30T07:08:21.980Z,62.86
2022-11-30T07:09:23.727Z,64.35
2022-11-30T07:10:25.500Z,65.39
2022-11-30T07:11:27.863Z,65.27
2022-11-30T07:12:29.634Z,64.38
2022-11-30T07:13:31.770Z,63.01
2022-11-30T07:14:33.560Z,61.78
2022-11-30T07:15:35.831Z,60.54
2022-11-30T07:16:38.215Z,59.49
2022-11-30T07:17:40.162Z,57.89
2022-11-30T07:18:41.962Z,56.65
2022-11-30T07:19:43.780Z,56.64
2022-11-30T07:20:45.497Z,57.42
2022-11-30T07:21:47.222Z,58.38
2022-11-30T07:22:48.955Z,59.38
2022-11-30T07:24:09.485Z,60.46
2022-11-30T07:25:29.608Z,61.58
2022-11-30T07:26:31.435Z,62.65
2022-11-30T07:27:33.183Z,64.25
2022-11-30T07:28:46.834Z,65.19
2022-11-30T07:29:51.600Z,64.78
2022-11-30T07:30:53.423Z,63.69
2022-11-30T07:31:55.866Z,62.40
2022-11-30T07:32:57.763Z,61.01
2022-11-30T07:34:05.750Z,59.80
2022-11-30T07:35:08.119Z,58.18
2022-11-30T07:36:10.377Z,56.77
2022-11-30T07:37:12.310Z,56.53
2022-11-30T07:38:14.089Z,57.17
2022-11-30T07:39:16.073Z,58.13
2022-11-30T07:40:18.041Z,58.84
2022-11-30T07:41:19.778Z,60.00
2022-11-30T07:42:23.205Z,61.19
2022-11-30T07:43:25.008Z,62.12
2022-11-30T07:44:28.040Z,63.24
2022-11-30T07:45:29.900Z,64.57
2022-11-30T07:46:36.192Z,65.04
2022-11-30T07:47:38.027Z,64.35
2022-11-30T07:48:40.163Z,63.13
2022-11-30T07:49:41.998Z,61.57
2022-11-30T07:50:43.775Z,60.28
2022-11-30T07:51:45.739Z,59.29
2022-11-30T07:52:47.490Z,57.60
2022-11-30T07:53:50.437Z,56.28
2022-11-30T07:54:52.224Z,56.26
2022-11-30T07:55:56.985Z,56.88
2022-11-30T07:56:58.956Z,57.42
2022-11-30T07:58:00.724Z,58.63
2022-11-30T07:59:03.763Z,59.68
2022-11-30T08:00:06.469Z,60.65
2022-11-30T08:01:17.314Z,62.12
2022-11-30T08:02:19.346Z,63.33
2022-11-30T08:03:21.402Z,64.96
2022-11-30T08:04:23.524Z,65.34
2022-11-30T08:05:25.320Z,64.66
2022-11-30T08:06:29.826Z,63.57
2022-11-30T08:07:31.685Z,62.18
2022-11-30T08:08:36.529Z,60.87
2022-11-30T08:09:38.358Z,59.70
2022-11-30T08:10:40.099Z,58.15
2022-11-30T08:11:42.061Z,56.69
2022-11-30T08:12:43.774Z,56.44
2022-11-30T08:13:45.960Z,56.93
2022-11-30T08:15:18.188Z,57.58
2022-11-30T08:16:19.064Z,58.85
2022-11-30T08:17:20.862Z,60.00
2022-11-30T08:18:22.687Z,60.94
2022-11-30T08:19:24.439Z,61.94
2022-11-30T08:20:26.219Z,62.81
2022-11-30T08:21:28.007Z,64.60
2022-11-30T08:22:30.101Z,65.20
2022-11-30T08:23:38.040Z,64.57
2022-11-30T08:24:39.846Z,63.42
2022-11-30T08:25:41.642Z,61.99
2022-11-30T08:26:43.461Z,60.74
2022-11-30T08:27:45.289Z,59.51
2022-11-30T08:28:49.134Z,57.96
2022-11-30T08:29:51.045Z,56.65
2022-11-30T08:30:52.877Z,56.55
2022-11-30T08:31:55.419Z,57.24
2022-11-30T08:32:58.062Z,58.13
2022-11-30T08:34:02.982Z,59.03
2022-11-30T08:35:05.339Z,60.17
2022-11-30T08:36:08.091Z,61.11
2022-11-30T08:37:09.936Z,62.13
2022-11-30T08:38:11.774Z,63.20
2022-11-30T08:39:14.005Z,64.65
2022-11-30T08:40:15.946Z,65.02
2022-11-30T08:41:21.984Z,64.30
2022-11-30T08:42:23.729Z,62.96
2022-11-30T08:43:25.506Z,61.58
2022-11-30T08:44:28.372Z,60.37
2022-11-30T08:45:30.193Z,59.08
2022-11-30T08:47:55.425Z,56.24
2022-11-30T08:49:12.997Z,56.67
2022-11-30T08:50:19.550Z,57.83
2022-11-30T08:51:21.927Z,58.67
2022-11-30T08:52:24.045Z,59.87
2022-11-30T08:53:26.376Z,60.89
2022-11-30T08:54:28.105Z,61.81
2022-11-30T08:55:29.887Z,62.50
2022-11-30T08:56:31.670Z,63.67
2022-11-30T08:57:34.002Z,64.68
2022-11-30T08:58:37.943Z,64.51
2022-11-30T08:59:40.095Z,63.33
2022-11-30T09:00:42.071Z,61.88
2022-11-30T09:01:43.893Z,60.58
2022-11-30T09:02:45.718Z,59.38
2022-11-30T09:03:50.613Z,57.50
2022-11-30T09:04:53.543Z,56.09
2022-11-30T09:05:55.359Z,55.91
2022-11-30T09:06:59.389Z,56.62
2022-11-30T09:08:01.455Z,57.68
2022-11-30T09:09:03.576Z,58.53
2022-11-30T09:10:06.116Z,59.27
2022-11-30T09:11:19.923Z,60.34
2022-11-30T09:12:21.934Z,61.42
2022-11-30T09:13:23.863Z,62.24
2022-11-30T09:14:25.623Z,63.33
2022-11-30T09:15:28.018Z,64.80
2022-11-30T09:16:30.034Z,65.18
2022-11-30T09:17:32.166Z,64.35
2022-11-30T09:18:34.178Z,63.05
2022-11-30T09:19:35.982Z,61.75
2022-11-30T09:20:37.778Z,60.29
2022-11-30T09:21:39.641Z,58.88
2022-11-30T09:22:42.161Z,57.02
2022-11-30T09:23:45.968Z,56.12
2022-11-30T09:24:48.147Z,56.35
2022-11-30T09:25:58.694Z,57.05
2022-11-30T09:27:00.837Z,58.40
2022-11-30T09:28:02.632Z,59.47
2022-11-30T09:29:04.599Z,60.32
2022-11-30T09:30:07.277Z,61.14
2022-11-30T09:31:19.466Z,61.78
2022-11-30T09:32:23.449Z,63.12
2022-11-30T09:33:25.225Z,64.62
2022-11-30T09:34:27.011Z,65.16
2022-11-30T09:35:28.810Z,64.53
2022-11-30T09:36:31.097Z,63.33
2022-11-30T09:37:33.453Z,61.81
2022-11-30T09:38:36.136Z,60.39
2022-11-30T09:39:38.049Z,59.01
2022-11-30T09:40:41.864Z,57.19
2022-11-30T09:41:55.811Z,56.21
2022-11-30T09:43:15.172Z,56.40
2022-11-30T09:44:46.538Z,57.35
2022-11-30T09:45:57.599Z,58.78
2022-11-30T09:47:12.278Z,59.67
2022-11-30T09:48:22.944Z,60.76
2022-11-30T09:49:30.801Z,61.74
2022-11-30T09:50:47.297Z,62.48
2022-11-30T09:51:52.524Z,64.29
2022-11-30T09:53:00.900Z,65.06
2022-11-30T09:54:12.205Z,64.40
2022-11-30T09:55:26.836Z,63.01
2022-11-30T09:56:37.808Z,61.27
2022-11-30T09:57:47.075Z,59.90
2022-11-30T09:58:56.785Z,57.78
2022-11-30T10:00:02.963Z,56.12
2022-11-30T10:01:19.250Z,56.14
2022-11-30T10:02:38.184Z,56.91
2022-11-30T10:03:40.455Z,57.95
2022-11-30T10:04:42.757Z,58.91
2022-11-30T10:06:31.090Z,59.59
2022-11-30T10:07:57.750Z,61.00
2022-11-30T10:09:21.015Z,62.02
2022-11-30T10:10:40.917Z,63.33
2022-11-30T10:12:00.217Z,64.87
2022-11-30T10:13:24.780Z,64.70
2022-11-30T10:14:47.402Z,63.01
2022-11-30T10:16:14.123Z,60.90
2022-11-30T10:17:36.085Z,58.95
2022-11-30T10:18:38.124Z,56.65
2022-11-30T10:20:11.679Z,55.97
2022-11-30T10:21:13.294Z,56.54
2022-11-30T10:22:48.049Z,57.37
2022-11-30T10:24:11.285Z,58.90
2022-11-30T10:25:29.065Z,60.05
2022-11-30T10:26:38.142Z,61.18
2022-11-30T10:27:52.536Z,62.12
2022-11-30T10:29:02.807Z,63.33
2022-11-30T10:30:16.054Z,64.77
2022-11-30T10:31:20.649Z,64.77
2022-11-30T10:32:33.539Z,63.70
2022-11-30T10:33:49.608Z,62.00
2022-11-30T10:34:58.434Z,60.24
2022-11-30T10:36:12.422Z,58.66
2022-11-30T10:37:22.783Z,56.31
2022-11-30T10:38:31.806Z,55.77
2022-11-30T10:40:00.995Z,56.42
2022-11-30T10:41:16.282Z,57.59
2022-11-30T10:42:39.166Z,58.62
2022-11-30T10:43:51.827Z,59.78
2022-11-30T10:45:15.365Z,60.75
2022-11-30T10:46:33.002Z,61.82
2022-11-30T10:47:40.825Z,62.93
2022-11-30T10:48:54.560Z,64.44
2022-11-30T10:49:56.373Z,64.92
2022-11-30T10:51:00.195Z,64.11
2022-11-30T10:52:07.381Z,62.62
2022-11-30T10:53:12.365Z,61.47
2022-11-30T10:54:20.336Z,59.57
2022-11-30T10:55:25.150Z,57.36
2022-11-30T10:56:26.941Z,55.90
2022-11-30T10:57:32.474Z,55.75
2022-11-30T10:58:40.222Z,56.43
2022-11-30T10:59:48.251Z,57.46
2022-11-30T11:01:04.286Z,58.15
2022-11-30T11:02:34.810Z,59.41
2022-11-30T11:03:38.107Z,60.25
2022-11-30T11:04:39.951Z,61.31
2022-11-30T11:05:42.036Z,62.08
2022-11-30T11:06:56.896Z,63.10
2022-11-30T11:08:17.138Z,64.75
2022-11-30T11:09:36.440Z,64.80
2022-11-30T11:10:48.222Z,63.41
2022-11-30T11:11:59.573Z,61.59
2022-11-30T11:13:01.477Z,59.95
2022-11-30T11:14:20.439Z,58.46
2022-11-30T11:15:25.977Z,56.13
2022-11-30T11:16:27.824Z,55.82
2022-11-30T11:17:33.049Z,56.14
2022-11-30T11:18:55.457Z,57.01
2022-11-30T11:19:57.322Z,58.51
2022-11-30T11:21:14.513Z,59.22
2022-11-30T11:22:26.075Z,60.16
2022-11-30T11:23:37.419Z,60.84
2022-11-30T11:24:39.883Z,61.74
2022-11-30T11:25:43.146Z,62.43
2022-11-30T11:26:53.588Z,63.35
2022-11-30T11:28:04.478Z,64.51
2022-11-30T11:29:06.564Z,64.09
2022-11-30T11:30:08.951Z,62.81
2022-11-30T11:31:37.864Z,61.62
2022-11-30T11:32:39.747Z,59.27
2022-11-30T11:33:52.002Z,57.30
2022-11-30T11:34:54.566Z,55.78
2022-11-30T11:36:14.891Z,55.82
2022-11-30T11:37:28.964Z,56.63
2022-11-30T11:38:41.865Z,57.54
2022-11-30T11:39:43.675Z,58.48
2022-11-30T11:40:54.972Z,59.25
2022-11-30T11:41:57.188Z,60.14
2022-11-30T11:42:59.784Z,60.60
2022-11-30T11:44:21.451Z,60.75
2022-11-30T11:45:26.230Z,62.06
2022-11-30T11:46:29.964Z,62.59
2022-11-30T11:47:41.158Z,63.96
2022-11-30T11:48:57.827Z,65.03
2022-11-30T11:50:43.248Z,64.32
2022-11-30T11:51:45.264Z,61.66
2022-11-30T11:52:47.331Z,60.12
2022-11-30T11:54:11.366Z,58.54
2022-11-30T11:55:19.093Z,56.14
2022-11-30T11:56:36.502Z,55.83
2022-11-30T11:57:46.049Z,56.46
2022-11-30T11:58:51.740Z,57.21
2022-11-30T12:00:15.697Z,58.16
2022-11-30T12:01:56.227Z,59.08
2022-11-30T12:03:33.906Z,60.22
2022-11-30T12:04:46.727Z,61.10
2022-11-30T12:05:56.531Z,61.67
2022-11-30T12:07:04.252Z,62.07
2022-11-30T12:08:05.973Z,62.87
2022-11-30T12:09:18.318Z,64.40
2022-11-30T12:10:52.457Z,64.85
2022-11-30T12:11:55.020Z,63.29
2022-11-30T12:12:59.351Z,61.93
2022-11-30T12:14:09.312Z,60.27
2022-11-30T12:15:15.148Z,58.53
2022-11-30T12:16:28.933Z,56.31
2022-11-30T12:18:01.692Z,55.45
2022-11-30T12:19:20.433Z,56.18
2022-11-30T12:20:44.088Z,57.20
2022-11-30T12:22:13.420Z,58.19
2022-11-30T12:23:44.699Z,59.54
2022-11-30T12:25:08.723Z,60.51
2022-11-30T12:26:34.958Z,61.35
2022-11-30T12:28:17.216Z,62.16
2022-11-30T12:29:41.407Z,63.53
2022-11-30T12:31:01.352Z,64.67
2022-11-30T12:32:13.787Z,63.86
2022-11-30T12:33:47.388Z,62.04
2022-11-30T12:35:14.688Z,60.01
2022-11-30T12:36:43.894Z,57.23
2022-11-30T12:38:02.855Z,55.52
2022-11-30T12:39:38.723Z,55.81
2022-11-30T12:40:59.020Z,56.94
2022-11-30T12:42:28.800Z,58.08
2022-11-30T12:43:51.425Z,59.20
2022-11-30T12:45:11.665Z,60.08
2022-11-30T12:46:42.114Z,60.97
2022-11-30T12:48:08.323Z,61.82
2022-11-30T12:49:46.852Z,62.51
2022-11-30T12:51:10.411Z,64.32
2022-11-30T12:52:14.791Z,64.26
2022-11-30T12:53:22.578Z,63.08
2022-11-30T12:54:42.139Z,61.57
2022-11-30T12:55:59.166Z,59.51
2022-11-30T12:57:23.694Z,57.28
2022-11-30T12:58:46.533Z,55.52
2022-11-30T13:00:06.427Z,55.90
2022-11-30T13:01:14.745Z,56.92
2022-11-30T13:02:45.767Z,57.76
2022-11-30T13:03:58.502Z,59.00
2022-11-30T13:05:09.579Z,60.02
2022-11-30T13:06:27.007Z,60.86
2022-11-30T13:07:43.154Z,61.75
2022-11-30T13:09:00.257Z,62.36
2022-11-30T13:10:27.294Z,63.27
2022-11-30T13:11:41.370Z,64.58
2022-11-30T13:12:48.237Z,63.91
2022-11-30T13:13:56.097Z,62.53
2022-11-30T13:15:01.868Z,60.83
2022-11-30T13:16:08.289Z,59.53
2022-11-30T13:17:19.369Z,57.29
2022-11-30T13:18:23.900Z,55.42
2022-11-30T13:20:08.197Z,55.28
2022-11-30T13:21:26.774Z,56.43
2022-11-30T13:22:45.326Z,57.45
2022-11-30T13:24:13.480Z,58.38
2022-11-30T13:26:06.833Z,59.39
2022-11-30T13:27:16.921Z,60.47
2022-11-30T13:28:42.991Z,61.34
2022-11-30T13:29:59.340Z,62.02
2022-11-30T13:31:10.097Z,62.46
2022-11-30T13:32:34.292Z,63.65
2022-11-30T13:33:45.934Z,64.82
2022-11-30T13:34:47.947Z,64.02
2022-11-30T13:35:54.698Z,62.57
2022-11-30T13:37:27.318Z,60.65
2022-11-30T13:38:38.369Z,58.31
2022-11-30T13:40:22.475Z,56.32
2022-11-30T13:41:24.530Z,55.48
2022-11-30T13:42:32.738Z,56.19
2022-11-30T13:43:54.702Z,57.23
2022-11-30T13:44:58.149Z,58.43
2022-11-30T13:46:19.676Z,59.20
2022-11-30T13:47:36.298Z,60.07
2022-11-30T13:48:44.091Z,60.80
2022-11-30T13:49:47.232Z,61.48
2022-11-30T13:50:49.358Z,62.18
2022-11-30T13:52:20.007Z,62.85
2022-11-30T13:53:24.160Z,64.41
2022-11-30T13:54:58.245Z,64.31
2022-11-30T13:56:06.652Z,62.71
2022-11-30T13:57:28.781Z,60.89
2022-11-30T13:58:31.596Z,58.75
2022-11-30T13:59:36.361Z,56.64
2022-11-30T14:00:38.066Z,55.53
2022-11-30T14:01:40.002Z,55.59
2022-11-30T14:02:44.532Z,56.08
2022-11-30T14:04:15.782Z,56.92
2022-11-30T14:05:20.432Z,58.32
2022-11-30T14:06:45.674Z,58.94
2022-11-30T14:08:07.412Z,59.98
2022-11-30T14:09:37.238Z,60.86
2022-11-30T14:10:46.052Z,61.86
2022-11-30T14:11:47.835Z,62.55
2022-11-30T14:12:59.132Z,63.70
2022-11-30T14:14:44.879Z,64.54
2022-11-30T14:15:47.044Z,63.08
2022-11-30T14:16:49.625Z,61.64
2022-11-30T14:17:58.075Z,60.09
2022-11-30T14:19:00.876Z,58.22
2022-11-30T14:20:19.130Z,56.16
2022-11-30T14:21:38.988Z,55.37
2022-11-30T14:22:43.463Z,56.11
2022-11-30T14:24:12.658Z,57.05
2022-11-30T14:25:21.075Z,58.30